Terminal Aerodrome Forecast
Issued by NWS

Home | Current Version | Previous Version | Text Only | Print | Product List | Glossary Off
Versions: 1 2 3 4 5 6 7 8 9 10 11 12 13 14 15 16 17 18 19 20 21 22 23

426
FTUS41 KCLE 230031 CCA
TAFFDY
TAF COR
KFDY 230031Z 2300/2324 04010KT P6SM SCT006 OVC100
      TEMPO 2300/2302 4SM BR BKN006
     FM230400 04008KT 4SM BR OVC006
     FM231200 04010KT 3SM BR VCSH OVC004
     FM231700 03008KT 5SM -RA BR OVC006=

USA.gov is the U.S. government's official web portal to all federal, state and local government web resources and services.